createdAt,value
2019-02-15T00:00:39.904Z,100.00
2019-02-15T00:03:10.851Z,100.00
2019-02-15T00:05:41.398Z,100.00
2019-02-15T00:08:13.366Z,100.00
2019-02-15T00:10:43.790Z,100.00
2019-02-15T00:13:14.478Z,100.00
2019-02-15T00:15:46.678Z,100.00
2019-02-15T00:18:30.355Z,100.00
2019-02-15T00:21:35.159Z,100.00
2019-02-15T00:24:05.677Z,100.00
2019-02-15T00:26:38.884Z,100.00
2019-02-15T00:29:09.722Z,100.00
2019-02-15T00:31:41.577Z,100.00
2019-02-15T00:34:12.274Z,100.00
2019-02-15T00:36:42.631Z,100.00
2019-02-15T00:39:13.515Z,100.00
2019-02-15T00:41:44.084Z,100.00
2019-02-15T00:44:14.961Z,99.50
2019-02-15T00:47:09.091Z,98.83
2019-02-15T00:49:58.602Z,98.06
2019-02-15T00:52:53.190Z,97.38
2019-02-15T00:55:38.362Z,97.62
2019-02-15T00:58:33.907Z,97.47
2019-02-15T01:01:16.180Z,97.33
2019-02-15T01:04:15.153Z,96.76
2019-02-15T01:07:07.313Z,96.76
2019-02-15T01:10:02.816Z,97.00
2019-02-15T01:12:42.330Z,96.67
2019-02-15T01:15:13.386Z,95.63
2019-02-15T01:17:43.856Z,95.62
2019-02-15T01:20:14.313Z,96.24
2019-02-15T01:22:46.109Z,96.40
2019-02-15T01:25:16.755Z,96.54
2019-02-15T01:27:56.080Z,97.06
2019-02-15T01:30:44.352Z,97.25
2019-02-15T01:33:32.752Z,97.26
2019-02-15T01:36:22.414Z,97.57
2019-02-15T01:39:08.999Z,98.50
2019-02-15T01:41:58.484Z,99.17
2019-02-15T01:44:59.803Z,99.43
2019-02-15T01:47:37.558Z,99.63
2019-02-15T01:50:08.350Z,99.75
2019-02-15T01:52:40.346Z,99.77
2019-02-15T01:55:12.134Z,99.64
2019-02-15T01:57:42.924Z,99.65
2019-02-15T02:00:16.013Z,99.73
2019-02-15T02:02:46.607Z,99.84
2019-02-15T02:05:17.007Z,99.82
2019-02-15T02:07:47.856Z,99.89
2019-02-15T02:10:18.244Z,99.90
2019-02-15T02:12:48.737Z,99.94
2019-02-15T02:15:19.351Z,100.00
2019-02-15T02:17:50.135Z,100.00
2019-02-15T02:20:20.777Z,100.00
2019-02-15T02:22:51.774Z,100.00
2019-02-15T02:25:22.373Z,100.00
2019-02-15T02:27:54.560Z,100.00
2019-02-15T02:30:25.307Z,100.00
2019-02-15T02:32:56.532Z,100.00
2019-02-15T02:35:27.077Z,100.00
2019-02-15T02:37:58.685Z,100.00
2019-02-15T02:40:30.911Z,100.00
2019-02-15T02:43:01.605Z,100.00
2019-02-15T02:45:32.562Z,100.00
2019-02-15T02:48:02.987Z,100.00
2019-02-15T02:50:33.634Z,100.00
2019-02-15T02:53:04.674Z,100.00
2019-02-15T02:55:35.394Z,100.00
2019-02-15T02:58:06.442Z,100.00
2019-02-15T03:00:37.229Z,100.00
2019-02-15T03:03:07.767Z,100.00
2019-02-15T03:05:38.247Z,100.00
2019-02-15T03:08:09.112Z,100.00
2019-02-15T03:10:40.494Z,100.00
2019-02-15T03:13:11.127Z,100.00
2019-02-15T03:15:41.906Z,100.00
2019-02-15T03:18:12.302Z,100.00
2019-02-15T03:20:42.687Z,100.00
2019-02-15T03:23:13.919Z,100.00
2019-02-15T03:25:44.483Z,100.00
2019-02-15T03:28:17.641Z,100.00
2019-02-15T03:30:48.282Z,100.00
2019-02-15T03:33:18.835Z,100.00
2019-02-15T03:36:00.095Z,100.00
2019-02-15T03:38:57.324Z,100.00
2019-02-15T03:41:32.705Z,100.00
2019-02-15T03:44:03.087Z,100.00
2019-02-15T03:46:33.745Z,100.00
2019-02-15T03:49:04.805Z,100.00
2019-02-15T03:51:35.240Z,100.00
2019-02-15T03:54:05.776Z,100.00
2019-02-15T03:56:37.634Z,100.00
2019-02-15T03:59:10.010Z,100.00
2019-02-15T04:01:43.477Z,100.00
2019-02-15T04:04:14.651Z,100.00
2019-02-15T04:06:47.482Z,100.00
2019-02-15T04:09:18.249Z,100.00
2019-02-15T04:11:48.759Z,100.00
2019-02-15T04:14:19.098Z,100.00
2019-02-15T04:16:49.887Z,100.00
2019-02-15T04:19:22.041Z,100.00
2019-02-15T04:21:52.468Z,99.87
2019-02-15T04:24:23.143Z,99.74
2019-02-15T04:26:53.792Z,99.61
2019-02-15T04:29:24.436Z,99.51
2019-02-15T04:31:55.141Z,99.46
2019-02-15T04:34:25.782Z,99.43
2019-02-15T04:36:56.660Z,99.43
2019-02-15T04:39:27.829Z,99.36
2019-02-15T04:41:58.267Z,99.50
2019-02-15T04:44:28.935Z,99.58
2019-02-15T04:46:59.393Z,99.68
2019-02-15T04:49:29.872Z,99.65
2019-02-15T04:52:00.485Z,99.64
2019-02-15T04:54:31.329Z,99.28
2019-02-15T04:57:02.119Z,99.14
2019-02-15T04:59:32.997Z,98.64
2019-02-15T05:02:03.824Z,97.99
2019-02-15T05:04:34.712Z,97.43
2019-02-15T05:07:06.020Z,96.90
2019-02-15T05:09:37.221Z,97.00
2019-02-15T05:12:07.902Z,96.82
2019-02-15T05:14:38.445Z,96.37
2019-02-15T05:17:09.289Z,95.80
2019-02-15T05:19:40.071Z,94.87
2019-02-15T05:22:10.748Z,93.95
2019-02-15T05:24:41.642Z,93.15
2019-02-15T05:27:12.240Z,92.89
2019-02-15T05:29:42.659Z,93.41
2019-02-15T05:32:13.224Z,93.49
2019-02-15T05:34:43.753Z,93.30
2019-02-15T05:37:14.511Z,93.39
2019-02-15T05:39:44.936Z,93.19
2019-02-15T05:42:15.418Z,93.07
2019-02-15T05:44:46.508Z,92.64
2019-02-15T05:47:17.921Z,92.59
2019-02-15T05:49:48.530Z,92.47
2019-02-15T05:52:19.012Z,93.23
2019-02-15T05:54:50.561Z,91.33
2019-02-15T05:57:21.543Z,90.96
2019-02-15T05:59:52.185Z,91.63
2019-02-15T06:02:22.914Z,92.49
2019-02-15T06:04:53.658Z,92.24
2019-02-15T06:07:24.174Z,92.00
2019-02-15T06:09:54.894Z,91.54
2019-02-15T06:12:25.366Z,91.25
2019-02-15T06:14:55.830Z,91.46
2019-02-15T06:17:27.370Z,91.67
2019-02-15T06:19:58.151Z,91.80
2019-02-15T06:22:28.653Z,91.72
2019-02-15T06:24:59.220Z,91.21
2019-02-15T06:27:29.737Z,91.50
2019-02-15T06:30:00.740Z,91.09
2019-02-15T06:32:31.574Z,91.21
2019-02-15T06:35:02.173Z,91.18
2019-02-15T06:37:32.723Z,90.95
2019-02-15T06:40:03.413Z,90.43
2019-02-15T06:42:33.779Z,90.35
2019-02-15T06:45:04.259Z,89.99
2019-02-15T06:47:34.805Z,89.12
2019-02-15T06:50:06.132Z,89.16
2019-02-15T06:52:36.669Z,89.81
2019-02-15T06:55:08.291Z,88.86
2019-02-15T06:57:38.841Z,88.53
2019-02-15T07:00:32.073Z,88.08
2019-02-15T07:03:18.231Z,88.42
2019-02-15T07:05:48.854Z,89.04
2019-02-15T07:08:19.258Z,88.69
2019-02-15T07:10:49.756Z,88.74
2019-02-15T07:13:20.128Z,88.95
2019-02-15T07:15:51.730Z,88.41
2019-02-15T07:18:22.121Z,88.41
2019-02-15T07:20:52.817Z,88.22
2019-02-15T07:23:26.077Z,87.35
2019-02-15T07:25:57.893Z,87.13
2019-02-15T07:42:15.437Z,84.59
2019-02-15T07:44:49.296Z,84.80
2019-02-15T07:47:22.392Z,84.43
2019-02-15T07:49:57.150Z,81.81
2019-02-15T07:52:29.868Z,83.11
2019-02-15T07:55:02.078Z,84.12
2019-02-15T07:57:34.053Z,82.49
2019-02-15T08:00:10.161Z,84.33
2019-02-15T08:02:42.583Z,83.86
2019-02-15T08:05:14.837Z,83.33
2019-02-15T08:07:46.985Z,82.77
2019-02-15T08:10:19.081Z,83.61
2019-02-15T08:12:51.279Z,84.16
2019-02-15T08:15:23.583Z,80.86
2019-02-15T08:17:55.634Z,82.66
2019-02-15T08:20:27.779Z,82.36
2019-02-15T08:23:00.072Z,79.72
2019-02-15T08:25:32.124Z,80.35
2019-02-15T08:28:04.102Z,77.59
2019-02-15T08:30:36.888Z,78.15
2019-02-15T08:33:09.089Z,78.78
2019-02-15T08:35:41.183Z,78.23
2019-02-15T08:38:13.163Z,77.22
2019-02-15T08:40:45.365Z,78.91
2019-02-15T08:43:17.630Z,80.09
2019-02-15T08:45:49.895Z,78.88
2019-02-15T08:48:23.611Z,78.70
2019-02-15T08:50:55.585Z,79.15
2019-02-15T08:53:27.638Z,79.47
2019-02-15T08:55:59.971Z,79.77
2019-02-15T08:58:32.060Z,79.64
2019-02-15T09:01:05.243Z,78.74
2019-02-15T09:03:37.635Z,78.67
2019-02-15T09:06:09.777Z,77.97
2019-02-15T09:08:41.940Z,78.93
2019-02-15T09:11:14.030Z,79.14
2019-02-15T09:13:47.472Z,79.08
2019-02-15T09:16:19.517Z,78.91
2019-02-15T09:18:52.060Z,79.19
2019-02-15T09:21:24.160Z,78.66
2019-02-15T09:23:56.207Z,78.99
2019-02-15T09:26:29.836Z,79.27
2019-02-15T09:29:05.782Z,78.57
2019-02-15T09:31:37.908Z,78.57
2019-02-15T09:34:10.048Z,77.73
2019-02-15T09:36:42.201Z,77.38
2019-02-15T09:39:14.187Z,76.98
2019-02-15T09:41:48.667Z,76.41
2019-02-15T09:44:20.656Z,75.84
2019-02-15T09:46:52.894Z,76.07
2019-02-15T09:49:24.879Z,75.92
2019-02-15T09:51:57.831Z,75.92
2019-02-15T09:54:29.818Z,75.92
2019-02-15T09:57:01.951Z,75.91
2019-02-15T09:59:33.971Z,75.63
2019-02-15T10:02:06.000Z,75.54
2019-02-15T10:04:38.076Z,75.17
2019-02-15T10:07:10.326Z,75.65
2019-02-15T10:09:42.534Z,75.25
2019-02-15T10:12:14.572Z,75.63
2019-02-15T10:14:46.542Z,76.00
2019-02-15T10:17:18.848Z,75.60
2019-02-15T10:19:50.899Z,75.34
2019-02-15T10:22:22.895Z,76.04
2019-02-15T10:24:55.002Z,76.65
2019-02-15T10:27:27.443Z,76.93
2019-02-15T10:29:59.962Z,76.34
2019-02-15T10:32:32.710Z,76.09
2019-02-15T10:35:06.632Z,74.63
2019-02-15T12:44:38.588Z,72.53
2019-02-15T12:47:15.120Z,71.95
2019-02-15T12:49:41.805Z,72.22
2019-02-15T12:52:12.776Z,71.27
2019-02-15T12:54:45.002Z,71.17
2019-02-15T12:57:15.671Z,70.37
2019-02-15T12:59:46.654Z,69.56
2019-02-15T13:02:19.606Z,68.96
2019-02-15T13:04:50.037Z,68.69
2019-02-15T13:07:22.083Z,66.61
2019-02-15T13:09:52.860Z,66.36
2019-02-15T13:12:23.412Z,65.57
2019-02-15T13:14:54.132Z,65.67
2019-02-15T13:17:25.210Z,65.03
2019-02-15T13:19:56.079Z,64.06
2019-02-15T13:22:26.543Z,63.99
2019-02-15T13:24:57.095Z,64.20
2019-02-15T13:27:27.729Z,64.29
2019-02-15T13:29:58.524Z,66.75
2019-02-15T13:32:30.130Z,66.88
2019-02-15T13:35:00.882Z,67.06
2019-02-15T13:37:31.289Z,67.69
2019-02-15T13:40:01.790Z,67.59
2019-02-15T13:42:32.215Z,67.10
2019-02-15T13:45:03.285Z,66.85
2019-02-15T13:47:34.992Z,67.37
2019-02-15T13:50:06.472Z,65.98
2019-02-15T13:52:37.076Z,65.35
2019-02-15T13:55:07.706Z,65.72
2019-02-15T13:57:37.992Z,65.25
2019-02-15T14:00:09.706Z,65.85
2019-02-15T14:02:40.344Z,65.69
2019-02-15T14:05:11.403Z,65.20
2019-02-15T14:07:41.913Z,65.50
2019-02-15T14:10:12.548Z,66.49
2019-02-15T14:12:45.850Z,66.83
2019-02-15T14:15:16.307Z,65.93
2019-02-15T14:17:48.715Z,65.55
2019-02-15T14:20:20.043Z,65.73
2019-02-15T14:22:50.727Z,65.47
2019-02-15T14:25:22.537Z,65.57
2019-02-15T14:27:53.039Z,65.49
2019-02-15T14:30:23.769Z,65.21
2019-02-15T14:32:54.554Z,64.35
2019-02-15T14:35:26.283Z,64.20
2019-02-15T14:37:58.592Z,64.25
2019-02-15T14:40:29.009Z,65.48
2019-02-15T14:43:00.097Z,65.99
2019-02-15T14:45:31.219Z,65.39
2019-02-15T14:48:02.833Z,66.10
2019-02-15T14:50:33.404Z,66.63
2019-02-15T14:53:05.162Z,66.49
2019-02-15T14:55:36.014Z,66.00
2019-02-15T14:58:06.630Z,65.86
2019-02-15T15:00:37.586Z,67.00
2019-02-15T15:03:08.461Z,67.19
2019-02-15T15:05:39.956Z,66.63
2019-02-15T15:08:10.699Z,67.24
2019-02-15T15:10:41.407Z,67.00
2019-02-15T15:13:11.770Z,67.24
2019-02-15T15:15:44.076Z,67.23
2019-02-15T15:18:15.742Z,67.22
2019-02-15T15:20:46.376Z,67.13
2019-02-15T15:23:18.716Z,67.54
2019-02-15T15:25:49.061Z,67.51
2019-02-15T15:28:21.200Z,67.81
2019-02-15T15:30:53.366Z,68.16
2019-02-15T15:33:23.862Z,68.12
2019-02-15T15:35:54.240Z,68.40
2019-02-15T15:38:24.607Z,68.54
2019-02-15T15:40:55.171Z,68.23
2019-02-15T15:43:27.580Z,68.39
2019-02-15T15:45:58.146Z,68.88
2019-02-15T15:48:30.294Z,69.28
2019-02-15T15:51:01.020Z,69.19
2019-02-15T15:53:32.838Z,69.62
2019-02-15T15:56:03.561Z,69.91
2019-02-15T15:58:34.023Z,70.19
2019-02-15T16:01:04.923Z,70.13
2019-02-15T16:03:35.426Z,70.14
2019-02-15T16:06:06.106Z,70.32
2019-02-15T16:08:36.595Z,70.50
2019-02-15T16:11:07.631Z,70.53
2019-02-15T16:13:38.152Z,70.77
2019-02-15T16:16:08.689Z,70.92
2019-02-15T16:18:39.157Z,71.06
2019-02-15T16:21:10.536Z,71.07
2019-02-15T16:23:40.899Z,71.04
2019-02-15T16:26:11.422Z,71.50
2019-02-15T16:28:41.856Z,71.59
2019-02-15T16:31:12.567Z,71.69
2019-02-15T16:33:43.011Z,71.80
2019-02-15T16:36:13.363Z,71.97
2019-02-15T16:38:43.893Z,72.14
2019-02-15T16:41:14.497Z,72.18
2019-02-15T16:43:44.927Z,72.28
2019-02-15T16:46:15.628Z,72.45
2019-02-15T16:48:46.216Z,72.67
2019-02-15T16:51:18.267Z,72.63
2019-02-15T16:53:48.785Z,72.72
2019-02-15T16:56:19.269Z,73.01
2019-02-15T16:58:49.874Z,73.15
2019-02-15T17:01:23.098Z,73.26
2019-02-15T17:03:53.804Z,73.49
2019-02-15T17:06:26.949Z,73.50
2019-02-15T17:08:58.357Z,73.66
2019-02-15T17:11:29.196Z,73.89
2019-02-15T17:13:59.984Z,74.11
2019-02-15T17:16:31.093Z,74.21
2019-02-15T17:19:03.794Z,74.21
2019-02-15T17:21:34.466Z,74.40
2019-02-15T17:24:06.135Z,74.49
2019-02-15T17:26:37.449Z,74.76
2019-02-15T17:29:07.927Z,75.02
2019-02-15T17:31:38.387Z,75.37
2019-02-15T17:34:08.892Z,75.49
2019-02-15T17:36:39.432Z,75.71
2019-02-15T17:39:10.140Z,75.94
2019-02-15T17:41:40.491Z,76.17
2019-02-15T17:44:11.550Z,76.44
2019-02-15T17:46:43.367Z,76.57
2019-02-15T17:49:13.853Z,76.84
2019-02-15T17:51:44.562Z,76.87
2019-02-15T17:54:15.035Z,76.90
2019-02-15T17:56:45.982Z,76.93
2019-02-15T17:59:16.532Z,77.00
2019-02-15T18:01:47.159Z,77.11
2019-02-15T18:04:17.567Z,77.35
2019-02-15T18:06:48.171Z,77.50
2019-02-15T18:09:19.305Z,77.53
2019-02-15T18:11:50.093Z,77.51
2019-02-15T18:14:22.880Z,77.46
2019-02-15T18:16:53.780Z,77.55
2019-02-15T18:19:24.314Z,77.60
2019-02-15T18:21:54.661Z,77.58
2019-02-15T18:24:24.993Z,77.77
2019-02-15T18:26:55.455Z,77.88
2019-02-15T18:29:25.991Z,77.91
2019-02-15T18:31:56.482Z,78.03
2019-02-15T18:34:27.591Z,78.31
2019-02-15T18:36:58.064Z,78.42
2019-02-15T18:39:30.474Z,78.78
2019-02-15T18:42:00.997Z,78.81
2019-02-15T18:44:33.977Z,79.03
2019-02-15T18:47:05.072Z,79.03
2019-02-15T18:49:35.687Z,79.00
2019-02-15T18:52:06.050Z,78.89
2019-02-15T18:54:37.016Z,78.99
2019-02-15T18:57:07.417Z,79.04
2019-02-15T18:59:37.989Z,79.03
2019-02-15T19:02:08.731Z,78.99
2019-02-15T19:04:39.438Z,79.10
2019-02-15T19:07:10.179Z,78.81
2019-02-15T19:09:40.951Z,78.77
2019-02-15T19:12:11.567Z,78.84
2019-02-15T19:14:41.843Z,78.80
2019-02-15T19:17:12.422Z,78.76
2019-02-15T19:19:42.761Z,79.20
2019-02-15T19:22:13.231Z,79.33
2019-02-15T19:24:43.753Z,79.16
2019-02-15T19:27:14.323Z,79.25
2019-02-15T19:29:45.007Z,79.21
2019-02-15T19:32:16.496Z,79.14
2019-02-15T19:34:47.554Z,79.10
2019-02-15T19:37:22.071Z,78.79
2019-02-15T19:39:52.359Z,78.79
2019-02-15T19:42:23.747Z,78.62
2019-02-15T19:44:54.606Z,78.45
2019-02-15T19:47:25.573Z,78.51
2019-02-15T19:49:56.038Z,78.64
2019-02-15T19:52:26.644Z,78.84
2019-02-15T19:54:57.236Z,78.68
2019-02-15T19:57:28.315Z,78.90
2019-02-15T20:00:01.267Z,78.88
2019-02-15T20:02:32.871Z,78.99
2019-02-15T20:05:03.699Z,78.93
2019-02-15T20:07:35.885Z,78.90
2019-02-15T20:10:08.381Z,78.91
2019-02-15T20:12:38.992Z,79.06
2019-02-15T20:15:10.828Z,78.96
2019-02-15T20:17:41.555Z,78.76
2019-02-15T20:20:13.017Z,78.59
2019-02-15T20:22:43.953Z,78.67
2019-02-15T20:25:14.665Z,78.51
2019-02-15T20:27:45.303Z,78.59
2019-02-15T20:30:18.265Z,78.73
2019-02-15T20:32:49.263Z,78.72
2019-02-15T20:35:20.128Z,78.93
2019-02-15T20:37:51.035Z,79.11
2019-02-15T20:40:22.819Z,79.25
2019-02-15T20:42:53.714Z,79.59
2019-02-15T20:45:24.317Z,79.81
2019-02-15T20:47:55.142Z,79.81
2019-02-15T20:50:26.478Z,80.33
2019-02-15T20:52:57.320Z,80.62
2019-02-15T20:55:27.870Z,80.85
2019-02-15T20:57:58.620Z,81.61
2019-02-15T21:00:29.815Z,82.03
2019-02-15T21:03:01.729Z,82.43
2019-02-15T21:05:32.512Z,82.87
2019-02-15T21:08:03.175Z,83.04
2019-02-15T21:10:33.672Z,83.09
2019-02-15T21:13:04.358Z,83.23
2019-02-15T21:15:35.522Z,83.37
2019-02-15T21:18:06.043Z,83.25
2019-02-15T21:20:38.301Z,83.12
2019-02-15T21:23:09.037Z,83.08
2019-02-15T21:25:40.542Z,83.03
2019-02-15T21:28:11.565Z,82.95
2019-02-15T21:30:42.400Z,82.91
2019-02-15T21:33:13.206Z,83.00
2019-02-15T21:35:43.838Z,82.98
2019-02-15T21:38:14.433Z,83.25
2019-02-15T21:40:45.023Z,83.36
2019-02-15T21:43:16.381Z,83.54
2019-02-15T21:45:46.708Z,83.78
2019-02-15T21:48:17.678Z,83.89
2019-02-15T21:50:49.277Z,83.78
2019-02-15T21:53:20.558Z,83.76
2019-02-15T21:55:52.000Z,83.26
2019-02-15T21:58:22.405Z,82.55
2019-02-15T22:00:53.293Z,82.17
2019-02-15T22:03:23.767Z,81.77
2019-02-15T22:05:55.804Z,81.48
2019-02-15T22:08:26.462Z,81.54
2019-02-15T22:10:56.948Z,81.41
2019-02-15T22:13:27.364Z,81.31
2019-02-15T22:15:58.256Z,81.27
2019-02-15T22:18:30.211Z,81.44
2019-02-15T22:21:00.956Z,81.51
2019-02-15T22:23:31.457Z,81.42
2019-02-15T22:26:02.121Z,81.56
2019-02-15T22:28:32.470Z,81.57
2019-02-15T22:31:03.352Z,81.66
2019-02-15T22:33:34.790Z,81.87
2019-02-15T22:36:06.013Z,82.18
2019-02-15T22:38:36.785Z,82.38
2019-02-15T22:41:17.767Z,82.52
2019-02-15T22:43:50.389Z,82.75
2019-02-15T22:46:22.558Z,82.95
2019-02-15T22:48:53.064Z,82.94
2019-02-15T22:51:23.610Z,82.92
2019-02-15T22:53:54.197Z,82.82
2019-02-15T22:56:24.783Z,82.92
2019-02-15T22:58:55.291Z,82.90
2019-02-15T23:01:27.615Z,83.05
2019-02-15T23:03:58.503Z,83.06
2019-02-15T23:06:30.863Z,82.92
2019-02-15T23:09:01.356Z,82.95
2019-02-15T23:11:33.488Z,82.91
2019-02-15T23:14:03.946Z,82.85
2019-02-15T23:16:34.434Z,82.98
2019-02-15T23:19:05.820Z,83.04
2019-02-15T23:21:36.258Z,83.13
2019-02-15T23:24:06.791Z,83.18
2019-02-15T23:26:37.756Z,83.19
2019-02-15T23:29:08.250Z,83.40
2019-02-15T23:31:39.068Z,83.63
2019-02-15T23:34:09.454Z,84.07
2019-02-15T23:36:40.696Z,84.31
2019-02-15T23:39:11.057Z,84.60
2019-02-15T23:41:41.545Z,84.86
2019-02-15T23:44:12.299Z,85.02
2019-02-15T23:46:42.738Z,84.94
2019-02-15T23:49:13.276Z,84.76
2019-02-15T23:51:45.244Z,84.55
2019-02-15T23:54:15.927Z,84.33
2019-02-15T23:56:46.448Z,84.21
2019-02-15T23:59:16.974Z,84.17
